sensor_id;sensor_type;location;lat;lon;timestamp;pressure;altitude;pressure_sealevel;temperature;humidity
20930;BME280;21895;47.072;15.132;2023-03-16T00:01:05;96885.00;;;4.38;57.14
20930;BME280;21895;47.072;15.132;2023-03-16T00:03:33;96899.00;;;4.39;57.51
20930;BME280;21895;47.072;15.132;2023-03-16T00:06:00;96900.00;;;4.37;56.02
20930;BME280;21895;47.072;15.132;2023-03-16T00:08:27;96898.00;;;4.40;56.59
20930;BME280;21895;47.072;15.132;2023-03-16T00:10:53;96893.00;;;4.47;57.10
20930;BME280;21895;47.072;15.132;2023-03-16T00:13:22;96900.00;;;4.48;57.71
20930;BME280;21895;47.072;15.132;2023-03-16T00:16:00;96897.00;;;4.32;58.00
20930;BME280;21895;47.072;15.132;2023-03-16T00:18:30;96899.00;;;4.33;57.86
20930;BME280;21895;47.072;15.132;2023-03-16T00:21:05;96909.00;;;4.32;57.80
20930;BME280;21895;47.072;15.132;2023-03-16T00:23:33;96904.00;;;4.28;57.62
20930;BME280;21895;47.072;15.132;2023-03-16T00:26:06;96905.00;;;4.36;57.64
20930;BME280;21895;47.072;15.132;2023-03-16T00:28:34;96907.00;;;4.46;57.36
20930;BME280;21895;47.072;15.132;2023-03-16T00:31:07;96907.00;;;4.36;56.67
20930;BME280;21895;47.072;15.132;2023-03-16T00:33:34;96909.00;;;4.44;56.34
20930;BME280;21895;47.072;15.132;2023-03-16T00:36:03;96918.00;;;4.35;56.42
20930;BME280;21895;47.072;15.132;2023-03-16T00:38:34;96915.00;;;4.25;56.85
20930;BME280;21895;47.072;15.132;2023-03-16T00:41:06;96915.00;;;4.33;56.90
20930;BME280;21895;47.072;15.132;2023-03-16T00:43:36;96915.00;;;4.34;56.36
20930;BME280;21895;47.072;15.132;2023-03-16T00:46:14;96911.00;;;4.35;56.46
20930;BME280;21895;47.072;15.132;2023-03-16T00:48:45;96921.00;;;4.50;56.63
20930;BME280;21895;47.072;15.132;2023-03-16T00:51:16;96917.00;;;4.50;56.84
20930;BME280;21895;47.072;15.132;2023-03-16T00:53:45;96916.00;;;4.57;56.22
20930;BME280;21895;47.072;15.132;2023-03-16T00:56:12;96924.00;;;4.67;55.84
20930;BME280;21895;47.072;15.132;2023-03-16T00:58:40;96925.00;;;4.62;56.09
20930;BME280;21895;47.072;15.132;2023-03-16T01:01:19;96928.00;;;4.51;56.48
20930;BME280;21895;47.072;15.132;2023-03-16T01:03:46;96928.00;;;4.44;57.05
20930;BME280;21895;47.072;15.132;2023-03-16T01:06:17;96922.00;;;4.44;57.88
20930;BME280;21895;47.072;15.132;2023-03-16T01:08:46;96927.00;;;4.40;57.85
20930;BME280;21895;47.072;15.132;2023-03-16T01:11:16;96919.00;;;4.32;58.12
20930;BME280;21895;47.072;15.132;2023-03-16T01:13:43;96916.00;;;4.20;58.25
20930;BME280;21895;47.072;15.132;2023-03-16T01:16:12;96917.00;;;4.08;59.64
20930;BME280;21895;47.072;15.132;2023-03-16T01:18:39;96932.00;;;4.07;59.55
20930;BME280;21895;47.072;15.132;2023-03-16T01:21:07;96919.00;;;4.20;58.30
20930;BME280;21895;47.072;15.132;2023-03-16T01:23:35;96921.00;;;4.10;58.40
20930;BME280;21895;47.072;15.132;2023-03-16T01:26:02;96931.00;;;4.00;59.51
20930;BME280;21895;47.072;15.132;2023-03-16T01:28:30;96924.00;;;4.19;58.38
20930;BME280;21895;47.072;15.132;2023-03-16T01:31:08;96917.00;;;4.15;58.37
20930;BME280;21895;47.072;15.132;2023-03-16T01:33:36;96929.00;;;4.08;59.49
20930;BME280;21895;47.072;15.132;2023-03-16T01:36:11;96918.00;;;4.08;59.61
20930;BME280;21895;47.072;15.132;2023-03-16T01:38:38;96923.00;;;3.95;59.78
20930;BME280;21895;47.072;15.132;2023-03-16T01:41:07;96927.00;;;3.91;59.88
20930;BME280;21895;47.072;15.132;2023-03-16T01:43:36;96920.00;;;3.90;60.87
20930;BME280;21895;47.072;15.132;2023-03-16T01:46:29;96920.00;;;3.85;61.10
20930;BME280;21895;47.072;15.132;2023-03-16T01:49:07;96921.00;;;3.86;60.68
20930;BME280;21895;47.072;15.132;2023-03-16T01:52:06;96921.00;;;3.99;60.51
20930;BME280;21895;47.072;15.132;2023-03-16T01:54:43;96916.00;;;4.14;58.82
20930;BME280;21895;47.072;15.132;2023-03-16T01:57:21;96910.00;;;4.03;59.01
20930;BME280;21895;47.072;15.132;2023-03-16T01:59:58;96916.00;;;3.82;60.02
20930;BME280;21895;47.072;15.132;2023-03-16T02:03:01;96914.00;;;3.72;61.22
20930;BME280;21895;47.072;15.132;2023-03-16T02:05:49;96921.00;;;3.69;62.41
20930;BME280;21895;47.072;15.132;2023-03-16T02:08:19;96934.00;;;3.72;60.59
20930;BME280;21895;47.072;15.132;2023-03-16T02:10:48;96931.00;;;3.56;61.08
20930;BME280;21895;47.072;15.132;2023-03-16T02:13:15;96934.00;;;3.63;61.22
20930;BME280;21895;47.072;15.132;2023-03-16T02:15:41;96935.00;;;3.76;61.30
20930;BME280;21895;47.072;15.132;2023-03-16T02:18:08;96936.00;;;3.88;61.17
20930;BME280;21895;47.072;15.132;2023-03-16T02:22:11;96943.00;;;3.91;61.17
20930;BME280;21895;47.072;15.132;2023-03-16T02:24:40;96947.00;;;3.67;62.08
20930;BME280;21895;47.072;15.132;2023-03-16T02:27:18;96943.00;;;3.52;62.68
20930;BME280;21895;47.072;15.132;2023-03-16T02:29:59;96949.00;;;3.39;63.47
20930;BME280;21895;47.072;15.132;2023-03-16T02:32:30;96955.00;;;3.20;63.83
20930;BME280;21895;47.072;15.132;2023-03-16T02:34:59;96944.00;;;3.18;64.28
20930;BME280;21895;47.072;15.132;2023-03-16T02:37:27;96952.00;;;3.18;65.09
20930;BME280;21895;47.072;15.132;2023-03-16T02:39:54;96956.00;;;3.20;64.71
20930;BME280;21895;47.072;15.132;2023-03-16T02:42:24;96952.00;;;3.21;64.65
20930;BME280;21895;47.072;15.132;2023-03-16T02:44:58;96953.00;;;3.33;64.86
20930;BME280;21895;47.072;15.132;2023-03-16T02:47:38;96955.00;;;3.35;63.72
20930;BME280;21895;47.072;15.132;2023-03-16T02:50:08;96956.00;;;3.40;62.99
20930;BME280;21895;47.072;15.132;2023-03-16T02:52:38;96956.00;;;3.42;63.14
20930;BME280;21895;47.072;15.132;2023-03-16T02:55:06;96958.00;;;3.38;63.34
20930;BME280;21895;47.072;15.132;2023-03-16T02:57:33;96960.00;;;3.24;62.83
20930;BME280;21895;47.072;15.132;2023-03-16T02:59:59;96956.00;;;3.09;63.34
20930;BME280;21895;47.072;15.132;2023-03-16T03:02:26;96958.00;;;3.00;63.92
20930;BME280;21895;47.072;15.132;2023-03-16T03:04:53;96961.00;;;3.06;64.88
20930;BME280;21895;47.072;15.132;2023-03-16T03:07:20;96970.00;;;2.86;65.83
20930;BME280;21895;47.072;15.132;2023-03-16T03:09:47;96970.00;;;2.90;65.55
20930;BME280;21895;47.072;15.132;2023-03-16T03:12:13;96970.00;;;2.98;65.47
20930;BME280;21895;47.072;15.132;2023-03-16T03:14:40;96978.00;;;3.10;65.25
20930;BME280;21895;47.072;15.132;2023-03-16T03:17:08;96974.00;;;3.10;64.66
20930;BME280;21895;47.072;15.132;2023-03-16T03:19:36;96981.00;;;3.13;64.38
20930;BME280;21895;47.072;15.132;2023-03-16T03:22:04;96978.00;;;3.14;64.17
20930;BME280;21895;47.072;15.132;2023-03-16T03:24:32;96988.00;;;3.11;64.12
20930;BME280;21895;47.072;15.132;2023-03-16T03:27:02;96980.00;;;2.96;64.53
20930;BME280;21895;47.072;15.132;2023-03-16T03:29:31;96975.00;;;2.88;64.48
20930;BME280;21895;47.072;15.132;2023-03-16T03:32:02;96984.00;;;2.89;64.84
20930;BME280;21895;47.072;15.132;2023-03-16T03:34:30;96989.00;;;2.97;64.59
20930;BME280;21895;47.072;15.132;2023-03-16T03:36:57;96993.00;;;2.93;64.84
20930;BME280;21895;47.072;15.132;2023-03-16T03:39:24;96987.00;;;2.90;64.92
20930;BME280;21895;47.072;15.132;2023-03-16T03:41:50;96999.00;;;3.09;64.28
20930;BME280;21895;47.072;15.132;2023-03-16T03:44:23;97000.00;;;3.20;63.74
20930;BME280;21895;47.072;15.132;2023-03-16T03:46:50;97014.00;;;3.17;63.62
20930;BME280;21895;47.072;15.132;2023-03-16T03:49:19;97011.00;;;2.93;63.97
20930;BME280;21895;47.072;15.132;2023-03-16T03:51:46;97008.00;;;2.84;64.53
20930;BME280;21895;47.072;15.132;2023-03-16T03:54:12;97015.00;;;2.85;64.72
20930;BME280;21895;47.072;15.132;2023-03-16T03:56:39;97012.00;;;2.73;64.92
20930;BME280;21895;47.072;15.132;2023-03-16T03:59:05;97018.00;;;2.70;63.32
20930;BME280;21895;47.072;15.132;2023-03-16T04:01:32;97028.00;;;2.50;64.15
20930;BME280;21895;47.072;15.132;2023-03-16T04:03:58;97037.00;;;2.33;64.54
20930;BME280;21895;47.072;15.132;2023-03-16T04:06:25;97030.00;;;2.22;65.09
20930;BME280;21895;47.072;15.132;2023-03-16T04:08:52;97031.00;;;2.18;65.38
20930;BME280;21895;47.072;15.132;2023-03-16T04:11:20;97036.00;;;2.28;64.80
20930;BME280;21895;47.072;15.132;2023-03-16T04:13:46;97041.00;;;2.18;65.17
20930;BME280;21895;47.072;15.132;2023-03-16T04:16:13;97045.00;;;2.18;64.98
20930;BME280;21895;47.072;15.132;2023-03-16T04:18:41;97044.00;;;1.98;65.37
20930;BME280;21895;47.072;15.132;2023-03-16T04:21:15;97049.00;;;1.90;65.29
20930;BME280;21895;47.072;15.132;2023-03-16T04:23:42;97058.00;;;1.78;65.65
20930;BME280;21895;47.072;15.132;2023-03-16T04:26:09;97061.00;;;1.81;66.49
20930;BME280;21895;47.072;15.132;2023-03-16T04:28:36;97050.00;;;1.98;66.26
20930;BME280;21895;47.072;15.132;2023-03-16T04:31:06;97054.00;;;2.01;64.60
20930;BME280;21895;47.072;15.132;2023-03-16T04:33:36;97055.00;;;1.64;65.73
20930;BME280;21895;47.072;15.132;2023-03-16T04:36:04;97059.00;;;1.37;66.24
20930;BME280;21895;47.072;15.132;2023-03-16T04:38:33;97069.00;;;1.32;66.70
20930;BME280;21895;47.072;15.132;2023-03-16T04:41:01;97066.00;;;1.24;66.96
20930;BME280;21895;47.072;15.132;2023-03-16T04:43:29;97064.00;;;1.08;66.65
20930;BME280;21895;47.072;15.132;2023-03-16T04:46:03;97075.00;;;1.05;67.18
20930;BME280;21895;47.072;15.132;2023-03-16T04:48:31;97070.00;;;1.08;66.58
20930;BME280;21895;47.072;15.132;2023-03-16T04:50:59;97075.00;;;1.16;66.69
20930;BME280;21895;47.072;15.132;2023-03-16T04:53:26;97066.00;;;1.04;67.75
20930;BME280;21895;47.072;15.132;2023-03-16T04:55:53;97069.00;;;1.19;67.14
20930;BME280;21895;47.072;15.132;2023-03-16T04:58:19;97079.00;;;0.89;66.57
20930;BME280;21895;47.072;15.132;2023-03-16T05:00:46;97097.00;;;0.81;67.28
20930;BME280;21895;47.072;15.132;2023-03-16T05:03:13;97098.00;;;0.65;67.21
20930;BME280;21895;47.072;15.132;2023-03-16T05:05:40;97095.00;;;0.67;67.77
20930;BME280;21895;47.072;15.132;2023-03-16T05:08:07;97107.00;;;0.83;67.63
20930;BME280;21895;47.072;15.132;2023-03-16T05:10:35;97097.00;;;1.02;65.79
20930;BME280;21895;47.072;15.132;2023-03-16T05:13:02;97112.00;;;0.87;65.39
20930;BME280;21895;47.072;15.132;2023-03-16T05:15:29;97115.00;;;0.58;65.22
20930;BME280;21895;47.072;15.132;2023-03-16T05:17:56;97112.00;;;0.51;66.38
20930;BME280;21895;47.072;15.132;2023-03-16T05:20:22;97111.00;;;0.39;66.56
20930;BME280;21895;47.072;15.132;2023-03-16T05:22:50;97116.00;;;0.41;67.27
20930;BME280;21895;47.072;15.132;2023-03-16T05:25:19;97119.00;;;0.46;67.57
20930;BME280;21895;47.072;15.132;2023-03-16T05:27:50;97111.00;;;0.44;67.80
20930;BME280;21895;47.072;15.132;2023-03-16T05:30:17;97126.00;;;0.47;67.38
20930;BME280;21895;47.072;15.132;2023-03-16T05:32:44;97125.00;;;0.43;67.37
20930;BME280;21895;47.072;15.132;2023-03-16T05:35:12;97131.00;;;0.27;67.43
20930;BME280;21895;47.072;15.132;2023-03-16T05:37:40;97132.00;;;0.34;66.87
20930;BME280;21895;47.072;15.132;2023-03-16T05:40:11;97128.00;;;0.24;66.98
20930;BME280;21895;47.072;15.132;2023-03-16T05:42:47;97133.00;;;0.30;66.51
20930;BME280;21895;47.072;15.132;2023-03-16T05:45:15;97135.00;;;0.13;66.12
20930;BME280;21895;47.072;15.132;2023-03-16T05:47:43;97138.00;;;0.04;67.17
20930;BME280;21895;47.072;15.132;2023-03-16T05:50:12;97135.00;;;-0.03;67.51
20930;BME280;21895;47.072;15.132;2023-03-16T05:52:39;97136.00;;;0.12;67.99
20930;BME280;21895;47.072;15.132;2023-03-16T05:55:08;97136.00;;;0.43;68.15
20930;BME280;21895;47.072;15.132;2023-03-16T05:57:34;97141.00;;;0.42;67.17
20930;BME280;21895;47.072;15.132;2023-03-16T06:00:05;97144.00;;;0.35;67.29
20930;BME280;21895;47.072;15.132;2023-03-16T06:02:38;97151.00;;;0.32;67.46
20930;BME280;21895;47.072;15.132;2023-03-16T06:05:05;97156.00;;;0.36;67.99
20930;BME280;21895;47.072;15.132;2023-03-16T06:07:33;97156.00;;;0.39;68.18
20930;BME280;21895;47.072;15.132;2023-03-16T06:10:00;97160.00;;;0.57;68.08
20930;BME280;21895;47.072;15.132;2023-03-16T06:12:26;97159.00;;;0.79;68.07
20930;BME280;21895;47.072;15.132;2023-03-16T06:14:53;97165.00;;;1.04;67.65
20930;BME280;21895;47.072;15.132;2023-03-16T06:17:22;97177.00;;;1.32;66.92
20930;BME280;21895;47.072;15.132;2023-03-16T06:19:49;97174.00;;;1.32;66.93
20930;BME280;21895;47.072;15.132;2023-03-16T06:22:16;97176.00;;;1.51;66.73
20930;BME280;21895;47.072;15.132;2023-03-16T06:24:43;97170.00;;;1.67;66.27
20930;BME280;21895;47.072;15.132;2023-03-16T06:27:10;97175.00;;;1.85;65.33
20930;BME280;21895;47.072;15.132;2023-03-16T06:29:37;97173.00;;;2.08;64.61
20930;BME280;21895;47.072;15.132;2023-03-16T06:32:04;97168.00;;;2.20;64.09
20930;BME280;21895;47.072;15.132;2023-03-16T06:34:30;97165.00;;;2.24;63.92
20930;BME280;21895;47.072;15.132;2023-03-16T06:36:57;97168.00;;;2.47;63.46
20930;BME280;21895;47.072;15.132;2023-03-16T06:39:23;97182.00;;;2.81;62.64
20930;BME280;21895;47.072;15.132;2023-03-16T06:41:50;97179.00;;;3.15;61.80
20930;BME280;21895;47.072;15.132;2023-03-16T06:44:16;97173.00;;;3.21;61.05
20930;BME280;21895;47.072;15.132;2023-03-16T06:46:43;97186.00;;;3.53;59.96
20930;BME280;21895;47.072;15.132;2023-03-16T06:49:09;97182.00;;;3.67;59.16
20930;BME280;21895;47.072;15.132;2023-03-16T06:51:36;97188.00;;;3.89;58.57
20930;BME280;21895;47.072;15.132;2023-03-16T06:54:02;97174.00;;;4.17;58.71
20930;BME280;21895;47.072;15.132;2023-03-16T06:56:29;97180.00;;;4.55;58.60
20930;BME280;21895;47.072;15.132;2023-03-16T06:58:57;97170.00;;;4.73;57.77
20930;BME280;21895;47.072;15.132;2023-03-16T07:01:23;97170.00;;;5.19;56.56
20930;BME280;21895;47.072;15.132;2023-03-16T07:03:50;97170.00;;;5.50;54.02
20930;BME280;21895;47.072;15.132;2023-03-16T07:06:17;97153.00;;;5.09;54.22
20930;BME280;21895;47.072;15.132;2023-03-16T07:08:43;97146.00;;;5.04;54.53
20930;BME280;21895;47.072;15.132;2023-03-16T07:11:10;97156.00;;;4.97;54.38
20930;BME280;21895;47.072;15.132;2023-03-16T07:13:37;97161.00;;;5.15;54.48
20930;BME280;21895;47.072;15.132;2023-03-16T07:16:06;97161.00;;;5.23;53.65
20930;BME280;21895;47.072;15.132;2023-03-16T07:18:33;97160.00;;;5.49;53.05
20930;BME280;21895;47.072;15.132;2023-03-16T07:20:59;97164.00;;;6.00;50.89
20930;BME280;21895;47.072;15.132;2023-03-16T07:23:26;97165.00;;;6.44;50.18
20930;BME280;21895;47.072;15.132;2023-03-16T07:25:52;97165.00;;;6.45;51.08
20930;BME280;21895;47.072;15.132;2023-03-16T07:28:19;97168.00;;;6.50;51.40
20930;BME280;21895;47.072;15.132;2023-03-16T07:30:46;97170.00;;;6.61;51.76
20930;BME280;21895;47.072;15.132;2023-03-16T07:33:30;97159.00;;;6.99;49.74
20930;BME280;21895;47.072;15.132;2023-03-16T07:35:57;97163.00;;;7.16;47.61
20930;BME280;21895;47.072;15.132;2023-03-16T07:38:24;97158.00;;;7.52;44.48
20930;BME280;21895;47.072;15.132;2023-03-16T07:40:50;97158.00;;;7.49;45.66
20930;BME280;21895;47.072;15.132;2023-03-16T07:43:19;97159.00;;;7.76;45.26
20930;BME280;21895;47.072;15.132;2023-03-16T07:45:50;97156.00;;;7.93;43.09
20930;BME280;21895;47.072;15.132;2023-03-16T07:48:18;97147.00;;;8.02;42.64
20930;BME280;21895;47.072;15.132;2023-03-16T07:50:47;97156.00;;;8.31;42.03
20930;BME280;21895;47.072;15.132;2023-03-16T07:53:13;97153.00;;;8.55;40.79
20930;BME280;21895;47.072;15.132;2023-03-16T07:55:42;97159.00;;;8.68;39.38
20930;BME280;21895;47.072;15.132;2023-03-16T07:58:09;97154.00;;;8.46;41.17
20930;BME280;21895;47.072;15.132;2023-03-16T08:00:37;97159.00;;;8.72;40.32
20930;BME280;21895;47.072;15.132;2023-03-16T08:03:04;97157.00;;;8.90;37.91
20930;BME280;21895;47.072;15.132;2023-03-16T08:05:31;97165.00;;;8.76;37.62
20930;BME280;21895;47.072;15.132;2023-03-16T08:07:58;97157.00;;;9.18;37.02
20930;BME280;21895;47.072;15.132;2023-03-16T08:10:27;97165.00;;;9.21;37.47
20930;BME280;21895;47.072;15.132;2023-03-16T08:12:54;97159.00;;;9.35;36.91
20930;BME280;21895;47.072;15.132;2023-03-16T08:15:21;97159.00;;;9.62;38.08
20930;BME280;21895;47.072;15.132;2023-03-16T08:17:47;97167.00;;;9.37;36.93
20930;BME280;21895;47.072;15.132;2023-03-16T08:20:14;97154.00;;;9.26;38.06
20930;BME280;21895;47.072;15.132;2023-03-16T08:22:43;97164.00;;;9.42;38.53
20930;BME280;21895;47.072;15.132;2023-03-16T08:25:12;97166.00;;;9.50;38.00
20930;BME280;21895;47.072;15.132;2023-03-16T08:27:38;97164.00;;;9.57;37.98
20930;BME280;21895;47.072;15.132;2023-03-16T08:30:09;97170.00;;;9.82;37.19
20930;BME280;21895;47.072;15.132;2023-03-16T08:32:37;97167.00;;;9.69;37.56
20930;BME280;21895;47.072;15.132;2023-03-16T08:35:07;97167.00;;;9.62;37.96
20930;BME280;21895;47.072;15.132;2023-03-16T08:37:35;97175.00;;;9.74;37.80
20930;BME280;21895;47.072;15.132;2023-03-16T08:40:01;97168.00;;;9.98;37.03
20930;BME280;21895;47.072;15.132;2023-03-16T08:42:30;97167.00;;;9.82;37.86
20930;BME280;21895;47.072;15.132;2023-03-16T08:44:56;97179.00;;;10.01;36.38
20930;BME280;21895;47.072;15.132;2023-03-16T08:47:25;97172.00;;;9.72;36.01
20930;BME280;21895;47.072;15.132;2023-03-16T08:49:52;97176.00;;;9.76;37.05
20930;BME280;21895;47.072;15.132;2023-03-16T08:52:18;97180.00;;;9.99;37.31
20930;BME280;21895;47.072;15.132;2023-03-16T08:54:45;97173.00;;;10.08;36.61
20930;BME280;21895;47.072;15.132;2023-03-16T08:57:28;97171.00;;;10.08;36.68
20930;BME280;21895;47.072;15.132;2023-03-16T08:59:54;97174.00;;;10.28;36.90
20930;BME280;21895;47.072;15.132;2023-03-16T09:02:21;97175.00;;;10.39;36.66
20930;BME280;21895;47.072;15.132;2023-03-16T09:04:47;97166.00;;;10.62;37.05
20930;BME280;21895;47.072;15.132;2023-03-16T09:07:14;97187.00;;;10.50;35.68
20930;BME280;21895;47.072;15.132;2023-03-16T09:09:41;97189.00;;;10.51;35.88
20930;BME280;21895;47.072;15.132;2023-03-16T09:12:07;97184.00;;;10.73;35.30
20930;BME280;21895;47.072;15.132;2023-03-16T09:14:34;97185.00;;;10.25;36.06
20930;BME280;21895;47.072;15.132;2023-03-16T09:17:04;97182.00;;;10.44;35.46
20930;BME280;21895;47.072;15.132;2023-03-16T09:19:30;97185.00;;;10.41;35.68
20930;BME280;21895;47.072;15.132;2023-03-16T09:22:18;97185.00;;;10.45;35.55
20930;BME280;21895;47.072;15.132;2023-03-16T09:24:44;97195.00;;;10.61;34.92
20930;BME280;21895;47.072;15.132;2023-03-16T09:27:11;97188.00;;;10.47;35.90
20930;BME280;21895;47.072;15.132;2023-03-16T09:29:38;97197.00;;;10.56;36.09
20930;BME280;21895;47.072;15.132;2023-03-16T09:32:04;97204.00;;;10.35;36.72
20930;BME280;21895;47.072;15.132;2023-03-16T09:34:31;97198.00;;;10.50;35.55
20930;BME280;21895;47.072;15.132;2023-03-16T09:36:59;97199.00;;;10.60;35.25
20930;BME280;21895;47.072;15.132;2023-03-16T09:39:26;97207.00;;;10.45;33.86
20930;BME280;21895;47.072;15.132;2023-03-16T09:43:47;97200.00;;;10.32;35.74
20930;BME280;21895;47.072;15.132;2023-03-16T09:46:52;97203.00;;;10.63;35.46
20930;BME280;21895;47.072;15.132;2023-03-16T09:49:23;97209.00;;;10.60;32.92
20930;BME280;21895;47.072;15.132;2023-03-16T09:57:32;97204.00;;;10.57;35.12
20930;BME280;21895;47.072;15.132;2023-03-16T10:00:22;97208.00;;;10.54;35.81
20930;BME280;21895;47.072;15.132;2023-03-16T10:04:31;97201.00;;;11.02;34.53
20930;BME280;21895;47.072;15.132;2023-03-16T10:07:41;97207.00;;;11.29;34.11
20930;BME280;21895;47.072;15.132;2023-03-16T10:11:49;97206.00;;;11.18;34.13
20930;BME280;21895;47.072;15.132;2023-03-16T10:15:24;97201.00;;;11.14;34.14
20930;BME280;21895;47.072;15.132;2023-03-16T10:18:47;97209.00;;;11.10;34.24
20930;BME280;21895;47.072;15.132;2023-03-16T10:21:18;97200.00;;;11.00;35.17
20930;BME280;21895;47.072;15.132;2023-03-16T10:23:46;97211.00;;;11.11;35.04
20930;BME280;21895;47.072;15.132;2023-03-16T10:26:32;97213.00;;;11.13;34.43
20930;BME280;21895;47.072;15.132;2023-03-16T10:29:03;97207.00;;;11.17;34.44
20930;BME280;21895;47.072;15.132;2023-03-16T10:31:29;97212.00;;;11.48;32.98
20930;BME280;21895;47.072;15.132;2023-03-16T10:34:05;97202.00;;;11.19;34.03
20930;BME280;21895;47.072;15.132;2023-03-16T10:36:34;97200.00;;;11.31;34.90
20930;BME280;21895;47.072;15.132;2023-03-16T10:39:07;97200.00;;;11.78;33.17
20930;BME280;21895;47.072;15.132;2023-03-16T10:41:43;97202.00;;;11.82;32.19
20930;BME280;21895;47.072;15.132;2023-03-16T10:44:14;97201.00;;;11.85;30.69
20930;BME280;21895;47.072;15.132;2023-03-16T10:46:45;97205.00;;;11.77;29.85
20930;BME280;21895;47.072;15.132;2023-03-16T10:49:33;97190.00;;;11.50;30.47
20930;BME280;21895;47.072;15.132;2023-03-16T10:52:14;97191.00;;;11.66;31.16
20930;BME280;21895;47.072;15.132;2023-03-16T10:54:50;97179.00;;;11.75;31.50
20930;BME280;21895;47.072;15.132;2023-03-16T10:57:33;97188.00;;;11.99;30.38
20930;BME280;21895;47.072;15.132;2023-03-16T11:00:14;97189.00;;;12.11;27.22
20930;BME280;21895;47.072;15.132;2023-03-16T11:02:41;97186.00;;;11.97;27.78
20930;BME280;21895;47.072;15.132;2023-03-16T11:05:32;97178.00;;;12.27;27.48
20930;BME280;21895;47.072;15.132;2023-03-16T11:08:12;97186.00;;;11.99;27.06
20930;BME280;21895;47.072;15.132;2023-03-16T11:10:43;97191.00;;;11.66;27.09
20930;BME280;21895;47.072;15.132;2023-03-16T11:13:24;97185.00;;;11.58;27.34
20930;BME280;21895;47.072;15.132;2023-03-16T11:19:22;97181.00;;;11.47;28.87
20930;BME280;21895;47.072;15.132;2023-03-16T11:22:15;97170.00;;;12.02;26.38
20930;BME280;21895;47.072;15.132;2023-03-16T11:24:50;97167.00;;;12.14;26.53
20930;BME280;21895;47.072;15.132;2023-03-16T11:31:42;97167.00;;;12.19;25.88
20930;BME280;21895;47.072;15.132;2023-03-16T11:34:17;97158.00;;;11.88;26.54
20930;BME280;21895;47.072;15.132;2023-03-16T11:39:57;97159.00;;;12.18;26.34
20930;BME280;21895;47.072;15.132;2023-03-16T11:42:50;97171.00;;;11.63;25.96
20930;BME280;21895;47.072;15.132;2023-03-16T11:45:46;97163.00;;;11.71;26.09
20930;BME280;21895;47.072;15.132;2023-03-16T11:49:56;97157.00;;;11.88;26.18
20930;BME280;21895;47.072;15.132;2023-03-16T11:53:39;97165.00;;;11.88;25.56
20930;BME280;21895;47.072;15.132;2023-03-16T11:56:42;97155.00;;;11.78;26.15
20930;BME280;21895;47.072;15.132;2023-03-16T12:03:45;97142.00;;;11.87;26.86
20930;BME280;21895;47.072;15.132;2023-03-16T12:11:02;97129.00;;;12.51;25.43
20930;BME280;21895;47.072;15.132;2023-03-16T12:14:22;97123.00;;;12.28;25.47
20930;BME280;21895;47.072;15.132;2023-03-16T12:17:13;97130.00;;;11.64;25.69
20930;BME280;21895;47.072;15.132;2023-03-16T12:24:05;97115.00;;;11.68;25.58
20930;BME280;21895;47.072;15.132;2023-03-16T12:26:41;97118.00;;;11.77;25.11
20930;BME280;21895;47.072;15.132;2023-03-16T12:31:53;97114.00;;;11.81;26.05
20930;BME280;21895;47.072;15.132;2023-03-16T12:42:08;97108.00;;;12.09;25.32
20930;BME280;21895;47.072;15.132;2023-03-16T12:51:09;97102.00;;;12.13;25.40
20930;BME280;21895;47.072;15.132;2023-03-16T12:53:54;97105.00;;;12.17;26.51
20930;BME280;21895;47.072;15.132;2023-03-16T12:56:43;97099.00;;;12.15;25.49
20930;BME280;21895;47.072;15.132;2023-03-16T12:59:17;97099.00;;;12.01;25.81
20930;BME280;21895;47.072;15.132;2023-03-16T13:01:56;97084.00;;;11.85;25.41
20930;BME280;21895;47.072;15.132;2023-03-16T13:04:33;97092.00;;;11.78;25.69
20930;BME280;21895;47.072;15.132;2023-03-16T13:07:19;97092.00;;;11.70;26.01
20930;BME280;21895;47.072;15.132;2023-03-16T13:10:07;97083.00;;;11.75;25.96
20930;BME280;21895;47.072;15.132;2023-03-16T13:12:36;97090.00;;;11.53;26.53
20930;BME280;21895;47.072;15.132;2023-03-16T13:15:28;97081.00;;;11.60;27.60
20930;BME280;21895;47.072;15.132;2023-03-16T13:20:26;97083.00;;;11.87;26.46
20930;BME280;21895;47.072;15.132;2023-03-16T13:23:26;97075.00;;;11.86;26.71
20930;BME280;21895;47.072;15.132;2023-03-16T13:26:22;97072.00;;;12.10;27.13
20930;BME280;21895;47.072;15.132;2023-03-16T13:28:54;97077.00;;;11.71;26.49
20930;BME280;21895;47.072;15.132;2023-03-16T13:31:40;97075.00;;;11.86;26.58
20930;BME280;21895;47.072;15.132;2023-03-16T13:34:14;97079.00;;;11.97;26.71
20930;BME280;21895;47.072;15.132;2023-03-16T13:36:45;97076.00;;;12.00;26.24
20930;BME280;21895;47.072;15.132;2023-03-16T13:39:24;97079.00;;;11.79;26.68
20930;BME280;21895;47.072;15.132;2023-03-16T13:42:14;97067.00;;;11.87;26.62
20930;BME280;21895;47.072;15.132;2023-03-16T13:44:42;97069.00;;;11.80;27.02
20930;BME280;21895;47.072;15.132;2023-03-16T13:47:15;97075.00;;;11.75;27.45
20930;BME280;21895;47.072;15.132;2023-03-16T13:49:50;97077.00;;;11.68;26.01
20930;BME280;21895;47.072;15.132;2023-03-16T13:52:41;97075.00;;;11.87;26.31
20930;BME280;21895;47.072;15.132;2023-03-16T13:55:17;97076.00;;;11.70;26.75
20930;BME280;21895;47.072;15.132;2023-03-16T13:57:47;97069.00;;;11.62;26.71
20930;BME280;21895;47.072;15.132;2023-03-16T14:00:25;97067.00;;;11.58;26.70
20930;BME280;21895;47.072;15.132;2023-03-16T14:02:58;97076.00;;;11.69;26.96
20930;BME280;21895;47.072;15.132;2023-03-16T14:05:32;97072.00;;;11.98;26.30
20930;BME280;21895;47.072;15.132;2023-03-16T14:08:00;97065.00;;;12.17;25.61
20930;BME280;21895;47.072;15.132;2023-03-16T14:10:34;97077.00;;;11.93;25.88
20930;BME280;21895;47.072;15.132;2023-03-16T14:13:31;97078.00;;;11.78;25.44
20930;BME280;21895;47.072;15.132;2023-03-16T14:16:44;97071.00;;;11.67;25.63
20930;BME280;21895;47.072;15.132;2023-03-16T14:19:21;97068.00;;;11.86;26.70
20930;BME280;21895;47.072;15.132;2023-03-16T14:21:51;97068.00;;;11.34;27.00